createdAt,value
2019-05-10T00:00:03.722Z,93.20
2019-05-10T00:03:04.907Z,93.10
2019-05-10T00:06:04.000Z,93.60
2019-05-10T00:08:46.733Z,94.00
2019-05-10T00:14:49.958Z,95.10
2019-05-10T00:17:29.738Z,95.20
2019-05-10T00:20:09.420Z,95.40
2019-05-10T00:25:29.326Z,95.30
2019-05-10T00:28:09.691Z,95.10
2019-05-10T00:30:49.898Z,94.70
2019-05-10T00:33:29.815Z,94.40
2019-05-10T00:36:10.110Z,94.10
2019-05-10T00:38:49.713Z,93.90
2019-05-10T00:41:29.777Z,93.80
2019-05-10T00:44:09.591Z,93.30
2019-05-10T00:46:49.719Z,92.90
2019-05-10T00:49:29.779Z,92.90
2019-05-10T00:52:09.643Z,92.70
2019-05-10T00:54:49.390Z,92.60
2019-05-10T00:57:29.310Z,92.50
2019-05-10T01:00:09.615Z,92.00
2019-05-10T01:02:49.460Z,91.60
2019-05-10T01:05:29.756Z,91.70
2019-05-10T01:08:09.648Z,91.60
2019-05-10T01:10:49.620Z,91.50
2019-05-10T01:13:29.709Z,91.30
2019-05-10T01:16:10.215Z,91.30
2019-05-10T01:18:49.819Z,91.00
2019-05-10T01:21:29.527Z,91.00
2019-05-10T01:24:10.412Z,91.20
2019-05-10T01:26:51.396Z,91.20
2019-05-10T01:29:31.384Z,91.20
2019-05-10T01:32:11.374Z,91.80
2019-05-10T01:34:51.473Z,92.20
2019-05-10T01:37:31.561Z,92.60
2019-05-10T01:40:11.764Z,93.10
2019-05-10T01:42:51.890Z,93.00
2019-05-10T01:45:29.739Z,93.50
2019-05-10T01:48:16.700Z,93.60
2019-05-10T01:50:56.527Z,93.50
2019-05-10T01:53:36.490Z,93.60
2019-05-10T01:56:16.711Z,93.60
2019-05-10T01:58:57.108Z,94.00
2019-05-10T02:01:37.093Z,94.40
2019-05-10T02:04:18.011Z,94.70
2019-05-10T02:06:58.334Z,94.80
2019-05-10T02:09:37.877Z,94.90
2019-05-10T02:12:17.847Z,95.10
2019-05-10T02:14:58.385Z,95.40
2019-05-10T02:17:38.901Z,96.10
2019-05-10T02:20:19.029Z,96.40
2019-05-10T02:22:59.005Z,96.60
2019-05-10T02:25:39.054Z,96.60
2019-05-10T02:28:18.912Z,96.60
2019-05-10T02:30:59.087Z,96.60
2019-05-10T02:33:39.444Z,96.60
2019-05-10T02:36:20.567Z,96.60
2019-05-10T02:39:00.787Z,96.60
2019-05-10T02:41:40.604Z,96.60
2019-05-10T02:44:21.532Z,96.60
2019-05-10T02:47:01.810Z,96.60
2019-05-10T02:49:42.329Z,96.60
2019-05-10T02:52:22.671Z,96.60
2019-05-10T02:55:03.574Z,96.60
2019-05-10T02:57:43.311Z,96.60
2019-05-10T03:00:23.512Z,96.60
2019-05-10T03:03:03.545Z,96.60
2019-05-10T03:05:48.146Z,96.60
2019-05-10T03:08:25.642Z,96.60
2019-05-10T03:11:05.488Z,96.60
2019-05-10T03:13:45.641Z,96.60
2019-05-10T03:16:25.982Z,96.60
2019-05-10T03:19:05.469Z,96.60
2019-05-10T03:21:45.422Z,96.60
2019-05-10T03:24:27.914Z,96.60
2019-05-10T03:27:07.538Z,96.60
2019-05-10T03:29:47.397Z,96.60
2019-05-10T03:32:27.623Z,96.60
2019-05-10T03:35:07.699Z,96.60
2019-05-10T03:37:47.763Z,96.60
2019-05-10T03:40:27.771Z,96.60
2019-05-10T03:43:08.821Z,96.60
2019-05-10T03:45:49.038Z,96.60
2019-05-10T03:51:09.061Z,96.60
2019-05-10T03:53:49.212Z,96.60
2019-05-10T03:56:30.036Z,96.60
2019-05-10T03:59:10.171Z,96.60
2019-05-10T04:01:50.434Z,96.60
2019-05-10T04:04:30.241Z,96.60
2019-05-10T04:07:10.268Z,96.60
2019-05-10T04:09:50.366Z,96.60
2019-05-10T04:12:30.579Z,96.60
2019-05-10T04:15:10.666Z,96.60
2019-05-10T04:17:50.836Z,96.60
2019-05-10T04:20:30.694Z,96.60
2019-05-10T04:23:10.624Z,96.60
2019-05-10T04:25:50.773Z,96.60
2019-05-10T04:28:30.756Z,96.60
2019-05-10T04:31:10.817Z,96.60
2019-05-10T04:33:50.987Z,96.60
2019-05-10T04:36:30.953Z,96.60
2019-05-10T04:39:11.373Z,96.60
2019-05-10T04:41:51.351Z,96.60
2019-05-10T04:44:31.339Z,96.60
2019-05-10T04:47:11.018Z,96.60
2019-05-10T04:49:49.102Z,96.20
2019-05-10T04:52:35.748Z,94.80
2019-05-10T04:55:15.968Z,93.20
2019-05-10T04:57:55.635Z,91.60
2019-05-10T05:00:35.673Z,91.20
2019-05-10T05:03:16.061Z,90.40
2019-05-10T05:05:56.115Z,89.10
2019-05-10T05:08:36.399Z,88.90
2019-05-10T05:11:16.513Z,88.50
2019-05-10T05:13:56.614Z,88.70
2019-05-10T05:16:39.558Z,89.10
2019-05-10T05:19:19.431Z,87.90
2019-05-10T05:21:57.397Z,87.10
2019-05-10T05:27:43.939Z,85.50
2019-05-10T05:30:23.941Z,84.60
2019-05-10T05:33:03.899Z,84.10
2019-05-10T05:35:43.977Z,84.10
2019-05-10T05:38:24.020Z,84.00
2019-05-10T05:41:05.039Z,83.00
2019-05-10T05:43:46.174Z,83.20
2019-05-10T05:46:27.242Z,82.40
2019-05-10T05:49:07.483Z,82.20
2019-05-10T05:51:47.633Z,82.60
2019-05-10T05:54:27.449Z,80.30
2019-05-10T05:57:07.839Z,80.80
2019-05-10T06:02:29.045Z,80.60
2019-05-10T06:05:09.351Z,81.30
2019-05-10T06:07:53.217Z,80.60
2019-05-10T06:10:33.484Z,80.90
2019-05-10T06:13:13.415Z,81.00
2019-05-10T06:15:53.776Z,79.70
2019-05-10T06:18:33.690Z,78.80
2019-05-10T06:21:17.999Z,78.60
2019-05-10T06:23:59.272Z,77.50
2019-05-10T06:26:38.698Z,76.60
2019-05-10T06:29:19.893Z,76.60
2019-05-10T06:31:59.632Z,76.60
2019-05-10T06:34:40.248Z,74.50
2019-05-10T06:37:20.350Z,74.20
2019-05-10T06:40:00.318Z,73.30
2019-05-10T06:42:40.593Z,72.60
2019-05-10T06:45:20.170Z,72.00
2019-05-10T06:48:00.208Z,72.20
2019-05-10T06:50:40.539Z,71.50
2019-05-10T06:53:23.283Z,70.70
2019-05-10T06:56:02.590Z,69.70
2019-05-10T06:58:42.464Z,70.10
2019-05-10T07:01:22.584Z,66.50
2019-05-10T07:04:02.824Z,67.50
2019-05-10T07:06:42.915Z,67.80
2019-05-10T07:09:23.711Z,66.00
2019-05-10T07:12:03.126Z,65.80
2019-05-10T07:14:46.022Z,66.30
2019-05-10T07:17:25.953Z,67.90
2019-05-10T07:20:06.272Z,65.60
2019-05-10T07:22:46.414Z,63.60
2019-05-10T07:25:27.513Z,63.30
2019-05-10T07:28:09.324Z,63.40
2019-05-10T07:30:49.488Z,61.90
2019-05-10T07:33:32.201Z,59.40
2019-05-10T07:36:15.254Z,59.20
2019-05-10T07:38:54.293Z,59.30
2019-05-10T07:41:34.583Z,61.50
2019-05-10T07:44:14.421Z,61.90
2019-05-10T07:46:58.318Z,60.80
2019-05-10T07:49:36.459Z,58.80
2019-05-10T07:52:16.401Z,58.20
2019-05-10T07:54:56.580Z,55.10
2019-05-10T07:57:36.614Z,56.90
2019-05-10T08:00:16.836Z,55.70
2019-05-10T08:03:07.409Z,54.50
2019-05-10T08:05:39.263Z,54.60
2019-05-10T08:08:19.314Z,55.40
2019-05-10T08:10:59.511Z,56.80
2019-05-10T08:13:39.619Z,56.80
2019-05-10T08:16:22.923Z,56.70
2019-05-10T08:19:02.380Z,54.80
2019-05-10T08:21:42.959Z,53.20
2019-05-10T08:24:22.707Z,52.80
2019-05-10T08:27:09.813Z,51.40
2019-05-10T08:29:44.982Z,52.70
2019-05-10T08:32:29.797Z,52.80
2019-05-10T08:35:16.390Z,52.60
2019-05-10T08:37:48.951Z,53.40
2019-05-10T08:40:36.738Z,51.80
2019-05-10T08:43:10.914Z,49.50
2019-05-10T08:45:57.978Z,51.10
2019-05-10T08:48:58.453Z,49.50
2019-05-10T08:54:18.537Z,47.80
2019-05-10T08:57:01.030Z,46.00
2019-05-10T08:59:42.634Z,49.00
2019-05-10T09:02:28.867Z,49.10
2019-05-10T09:05:04.570Z,49.80
2019-05-10T09:07:45.389Z,49.40
2019-05-10T09:10:26.400Z,49.60
2019-05-10T09:13:06.796Z,46.90
2019-05-10T09:15:51.856Z,46.60
2019-05-10T09:18:38.243Z,46.10
2019-05-10T09:21:35.236Z,44.50
2019-05-10T09:24:15.476Z,46.90
2019-05-10T09:26:57.119Z,46.60
2019-05-10T09:29:37.377Z,46.00
2019-05-10T09:32:28.824Z,45.10
2019-05-10T09:35:09.085Z,43.00
2019-05-10T09:37:52.889Z,43.40
2019-05-10T09:40:29.937Z,44.00
2019-05-10T09:43:12.511Z,45.40
2019-05-10T09:45:53.009Z,44.40
2019-05-10T09:48:33.457Z,43.30
2019-05-10T09:51:13.890Z,42.00
2019-05-10T09:53:54.307Z,39.50
2019-05-10T09:56:39.511Z,42.50
2019-05-10T09:59:17.914Z,41.80
2019-05-10T10:01:58.178Z,42.00
2019-05-10T10:04:38.464Z,42.80
2019-05-10T10:07:19.134Z,42.00
2019-05-10T10:09:58.981Z,39.40
2019-05-10T10:12:39.071Z,39.10
2019-05-10T10:15:29.776Z,38.10
2019-05-10T10:18:01.409Z,37.30
2019-05-10T10:20:45.055Z,36.70
2019-05-10T10:23:24.732Z,37.50
2019-05-10T10:26:07.214Z,38.90
2019-05-10T10:28:49.559Z,39.80
2019-05-10T10:31:33.330Z,39.20
2019-05-10T10:34:12.710Z,38.90
2019-05-10T10:36:52.065Z,39.30
2019-05-10T10:39:32.603Z,37.80
2019-05-10T10:42:13.358Z,39.50
2019-05-10T10:44:53.459Z,37.30
2019-05-10T10:47:33.469Z,39.40
2019-05-10T10:50:13.812Z,37.50
2019-05-10T10:52:54.592Z,37.60
2019-05-10T10:55:37.087Z,36.60
2019-05-10T10:58:18.426Z,36.40
2019-05-10T11:00:58.926Z,38.90
2019-05-10T11:03:39.120Z,40.70
2019-05-10T11:06:19.476Z,39.30
2019-05-10T11:09:01.734Z,39.80
2019-05-10T11:11:44.817Z,38.60
2019-05-10T11:14:25.305Z,38.80
2019-05-10T11:17:05.685Z,38.80
2019-05-10T11:19:45.762Z,41.50
2019-05-10T11:22:27.482Z,37.90
2019-05-10T11:25:10.403Z,37.30
2019-05-10T11:27:53.941Z,35.50
2019-05-10T11:30:32.499Z,34.20
2019-05-10T11:33:25.799Z,32.60
2019-05-10T11:35:57.758Z,33.70
2019-05-10T11:38:36.751Z,34.20
2019-05-10T11:41:22.036Z,34.70
2019-05-10T11:44:05.602Z,35.80
2019-05-10T11:49:30.782Z,37.70
2019-05-10T11:52:13.205Z,38.20
2019-05-10T11:54:53.435Z,38.20
2019-05-10T11:57:33.172Z,38.60
2019-05-10T12:03:07.402Z,36.90
2019-05-10T12:05:37.100Z,35.40
2019-05-10T12:08:16.496Z,35.80
2019-05-10T12:11:08.392Z,35.70
2019-05-10T12:13:39.306Z,36.00
2019-05-10T12:19:07.154Z,33.60
2019-05-10T12:21:42.052Z,33.00
2019-05-10T12:24:39.024Z,32.10
2019-05-10T12:26:06.012Z,37.40
2019-05-10T12:27:18.597Z,30.70
2019-05-10T12:29:46.594Z,30.10
2019-05-10T12:32:33.315Z,29.60
2019-05-10T12:35:11.737Z,28.20
2019-05-10T12:40:31.726Z,30.90
2019-05-10T12:43:11.776Z,29.90
2019-05-10T12:45:56.597Z,31.10
2019-05-10T12:51:16.698Z,30.60
2019-05-10T12:53:55.471Z,29.30
2019-05-10T12:56:44.360Z,28.80
2019-05-10T12:59:44.363Z,29.70
2019-05-10T13:02:24.623Z,30.70
2019-05-10T13:05:04.988Z,31.50
2019-05-10T13:07:44.855Z,33.10
2019-05-10T13:10:24.658Z,33.00
2019-05-10T13:13:04.548Z,33.10
2019-05-10T13:15:44.808Z,31.50
2019-05-10T13:18:48.212Z,30.80
2019-05-10T13:21:07.966Z,30.60
2019-05-10T13:23:53.346Z,30.10
2019-05-10T13:26:31.783Z,29.80
2019-05-10T13:29:11.575Z,31.30
2019-05-10T13:31:51.946Z,30.00
2019-05-10T13:34:35.067Z,31.10
2019-05-10T13:37:23.086Z,29.60
2019-05-10T13:39:58.306Z,29.60
2019-05-10T13:42:43.577Z,28.80
2019-05-10T13:45:21.042Z,29.50
2019-05-10T13:47:48.720Z,28.60
2019-05-10T13:50:16.234Z,28.40
2019-05-10T13:52:56.107Z,28.80
2019-05-10T13:55:36.102Z,28.00
2019-05-10T13:58:16.264Z,28.00
2019-05-10T14:00:56.619Z,27.30
2019-05-10T14:03:44.444Z,27.70
2019-05-10T14:06:20.108Z,27.80
2019-05-10T14:11:46.294Z,28.00
2019-05-10T14:14:26.452Z,29.50
2019-05-10T14:17:04.248Z,30.90
2019-05-10T14:19:44.798Z,32.70
2019-05-10T14:22:24.324Z,32.60
2019-05-10T14:25:02.665Z,34.20
2019-05-10T14:27:50.042Z,33.80
2019-05-10T14:30:29.954Z,33.40
2019-05-10T14:33:14.818Z,34.90
2019-05-10T14:36:00.371Z,36.00
2019-05-10T14:38:36.917Z,36.40
2019-05-10T14:41:17.932Z,35.70
2019-05-10T14:43:59.013Z,35.80
2019-05-10T14:46:39.049Z,35.60
2019-05-10T14:49:18.881Z,35.90
2019-05-10T14:51:59.772Z,35.80
2019-05-10T14:54:43.621Z,35.00
2019-05-10T14:57:20.969Z,36.20
2019-05-10T15:00:04.402Z,36.90
2019-05-10T15:02:44.051Z,37.30
2019-05-10T15:05:23.973Z,35.60
2019-05-10T15:08:07.579Z,35.50
2019-05-10T15:10:46.978Z,36.60
2019-05-10T15:13:28.277Z,37.30
2019-05-10T15:16:12.593Z,37.30
2019-05-10T15:18:50.385Z,38.50
2019-05-10T15:21:30.333Z,39.40
2019-05-10T15:24:09.654Z,39.40
2019-05-10T15:26:50.173Z,40.50
2019-05-10T15:29:29.943Z,41.10
2019-05-10T15:32:10.166Z,41.70
2019-05-10T15:35:05.251Z,41.50
2019-05-10T15:37:32.572Z,41.80
2019-05-10T15:40:12.520Z,41.30
2019-05-10T15:42:52.824Z,42.50
2019-05-10T15:45:32.706Z,41.70
2019-05-10T15:48:13.971Z,42.40
2019-05-10T15:50:54.142Z,42.20
2019-05-10T15:53:25.637Z,40.70
2019-05-10T15:55:50.121Z,40.40
2019-05-10T15:58:17.370Z,41.60
2019-05-10T16:00:44.831Z,41.40
2019-05-10T16:03:11.887Z,40.50
2019-05-10T16:05:43.697Z,39.80
2019-05-10T16:08:08.240Z,39.20
2019-05-10T16:10:39.479Z,39.90
2019-05-10T16:13:05.564Z,39.60
2019-05-10T16:15:32.535Z,41.10
2019-05-10T16:18:05.242Z,42.00
2019-05-10T16:20:37.325Z,41.10
2019-05-10T16:23:02.785Z,41.40
2019-05-10T16:25:32.898Z,42.70
2019-05-10T16:28:01.646Z,43.10
2019-05-10T16:30:29.476Z,43.40
2019-05-10T16:32:56.989Z,43.40
2019-05-10T16:35:37.783Z,42.90
2019-05-10T16:37:53.109Z,42.50
2019-05-10T16:40:20.504Z,41.20
2019-05-10T16:42:47.549Z,42.10
2019-05-10T16:45:15.072Z,41.70
2019-05-10T16:47:42.400Z,43.10
2019-05-10T16:50:10.437Z,42.90
2019-05-10T16:52:37.881Z,42.60
2019-05-10T16:55:05.600Z,42.90
2019-05-10T16:57:37.382Z,41.60
2019-05-10T17:00:07.593Z,41.70
2019-05-10T17:02:36.606Z,41.90
2019-05-10T17:05:01.925Z,42.20
2019-05-10T17:07:29.109Z,43.50
2019-05-10T17:09:56.389Z,43.10
2019-05-10T17:12:27.647Z,44.40
2019-05-10T17:14:56.305Z,45.90
2019-05-10T17:17:21.676Z,46.70
2019-05-10T17:19:49.134Z,47.60
2019-05-10T17:22:16.271Z,48.00
2019-05-10T17:24:43.577Z,48.30
2019-05-10T17:27:11.424Z,48.70
2019-05-10T17:29:38.818Z,48.90
2019-05-10T17:32:06.939Z,49.10
2019-05-10T17:34:34.344Z,47.80
2019-05-10T17:37:01.808Z,48.10
2019-05-10T17:39:32.045Z,48.20
2019-05-10T17:42:03.239Z,48.50
2019-05-10T17:44:28.763Z,48.90
2019-05-10T17:46:57.392Z,48.40
2019-05-10T17:49:25.068Z,47.00
2019-05-10T17:51:52.440Z,47.10
2019-05-10T17:54:20.296Z,47.90
2019-05-10T17:56:47.412Z,48.00
2019-05-10T17:59:14.897Z,47.60
2019-05-10T18:01:43.397Z,47.60
2019-05-10T18:04:10.431Z,48.10
2019-05-10T18:06:37.440Z,47.90
2019-05-10T18:09:05.685Z,48.70
2019-05-10T18:11:36.961Z,48.50
2019-05-10T18:14:01.861Z,48.40
2019-05-10T18:16:29.853Z,48.70
2019-05-10T18:18:58.081Z,49.20
2019-05-10T18:21:25.495Z,49.70
2019-05-10T18:23:58.161Z,49.70
2019-05-10T18:26:22.266Z,50.60
2019-05-10T18:28:49.515Z,50.50
2019-05-10T18:31:16.725Z,53.60
2019-05-10T18:33:44.896Z,52.10
2019-05-10T18:36:13.166Z,53.40
2019-05-10T18:38:41.076Z,54.20
2019-05-10T18:41:10.010Z,54.80
2019-05-10T18:43:40.607Z,55.70
2019-05-10T18:46:08.781Z,55.80
2019-05-10T18:48:39.776Z,55.70
2019-05-10T18:51:07.476Z,56.70
2019-05-10T18:53:34.992Z,58.10
2019-05-10T18:56:02.639Z,59.50
2019-05-10T18:58:31.581Z,59.70
2019-05-10T19:01:00.791Z,60.00
2019-05-10T19:03:33.651Z,60.50
2019-05-10T19:05:57.418Z,61.40
2019-05-10T19:08:24.656Z,61.70
2019-05-10T19:10:52.352Z,60.90
2019-05-10T19:13:19.790Z,59.80
2019-05-10T19:15:52.856Z,59.90
2019-05-10T19:18:17.870Z,60.10
2019-05-10T19:20:48.864Z,61.40
2019-05-10T19:23:19.356Z,64.40
2019-05-10T19:25:51.551Z,64.40
2019-05-10T19:28:14.870Z,64.50
2019-05-10T19:30:42.480Z,64.70
2019-05-10T19:33:09.583Z,65.60
2019-05-10T19:35:37.912Z,66.00
2019-05-10T19:38:05.350Z,67.80
2019-05-10T19:40:32.395Z,69.70
2019-05-10T19:42:59.955Z,70.50
2019-05-10T19:45:30.572Z,70.90
2019-05-10T19:47:57.190Z,71.00
2019-05-10T19:50:30.945Z,71.10
2019-05-10T19:52:58.499Z,71.40
2019-05-10T19:55:25.596Z,71.40
2019-05-10T19:57:54.809Z,71.60
2019-05-10T20:00:22.463Z,72.00
2019-05-10T20:02:50.119Z,72.20
2019-05-10T20:05:17.308Z,72.20
2019-05-10T20:07:46.587Z,72.30
2019-05-10T20:10:17.634Z,72.60
2019-05-10T20:12:44.914Z,72.90
2019-05-10T20:15:12.127Z,72.90
2019-05-10T20:17:39.332Z,73.20
2019-05-10T20:20:06.658Z,73.10
2019-05-10T20:22:36.093Z,72.80
2019-05-10T20:25:06.778Z,72.80
2019-05-10T20:27:33.968Z,72.70
2019-05-10T20:30:01.331Z,72.70
2019-05-10T20:32:28.682Z,73.20
2019-05-10T20:34:56.301Z,73.20
2019-05-10T20:37:23.723Z,73.20
2019-05-10T20:39:51.296Z,72.70
2019-05-10T20:42:18.404Z,73.20
2019-05-10T20:44:45.833Z,73.20
2019-05-10T20:47:13.403Z,73.20
2019-05-10T20:49:40.584Z,73.20
2019-05-10T20:52:11.162Z,73.40
2019-05-10T20:54:38.128Z,73.20
2019-05-10T20:57:05.329Z,73.40
2019-05-10T20:59:32.510Z,73.20
2019-05-10T21:01:59.747Z,73.20
2019-05-10T21:04:27.091Z,73.60
2019-05-10T21:06:54.306Z,73.60
2019-05-10T21:09:21.699Z,73.60
2019-05-10T21:11:49.321Z,73.90
2019-05-10T21:14:17.167Z,74.00
2019-05-10T21:16:44.610Z,74.20
2019-05-10T21:19:12.117Z,74.40
2019-05-10T21:21:39.516Z,74.30
2019-05-10T21:24:07.085Z,74.20
2019-05-10T21:26:34.766Z,74.20
2019-05-10T21:29:02.062Z,74.30
2019-05-10T21:31:29.435Z,74.40
2019-05-10T21:34:09.228Z,74.00
2019-05-10T21:36:29.634Z,73.70
2019-05-10T21:38:56.974Z,74.00
2019-05-10T21:41:24.559Z,74.00
2019-05-10T21:43:55.165Z,73.90
2019-05-10T21:46:22.698Z,74.00
2019-05-10T21:48:50.874Z,74.20
2019-05-10T21:51:18.022Z,74.70
2019-05-10T21:53:45.633Z,76.10
2019-05-10T21:56:12.874Z,76.40
2019-05-10T21:58:40.372Z,77.40
2019-05-10T22:01:07.624Z,77.90
2019-05-10T22:03:34.906Z,79.30
2019-05-10T22:06:02.690Z,80.10
2019-05-10T22:08:29.707Z,80.20
2019-05-10T22:10:56.852Z,80.60
2019-05-10T22:13:24.254Z,80.90
2019-05-10T22:15:51.551Z,80.00
2019-05-10T22:18:19.127Z,80.10
2019-05-10T22:20:46.874Z,80.40
2019-05-10T22:23:13.880Z,81.00
2019-05-10T22:25:41.090Z,80.90
2019-05-10T22:28:08.860Z,80.90
2019-05-10T22:30:36.067Z,80.80
2019-05-10T22:33:03.216Z,80.80
2019-05-10T22:35:30.543Z,81.50
2019-05-10T22:37:57.615Z,81.90
2019-05-10T22:40:24.843Z,82.20
2019-05-10T22:42:52.236Z,83.20
2019-05-10T22:45:19.705Z,83.80
2019-05-10T22:47:47.063Z,83.70
2019-05-10T22:50:14.691Z,84.20
2019-05-10T22:52:42.159Z,84.00
2019-05-10T22:55:09.570Z,83.90
2019-05-10T22:57:36.883Z,84.00
2019-05-10T23:00:04.554Z,84.60
2019-05-10T23:02:33.679Z,85.70
2019-05-10T23:05:00.587Z,86.70
2019-05-10T23:07:27.784Z,87.10
2019-05-10T23:09:55.510Z,87.70
2019-05-10T23:12:22.610Z,87.60
2019-05-10T23:14:53.896Z,87.80
2019-05-10T23:17:22.322Z,88.00
2019-05-10T23:19:48.741Z,88.40
2019-05-10T23:22:18.879Z,89.00
2019-05-10T23:24:45.892Z,89.00
2019-05-10T23:27:13.350Z,88.90
2019-05-10T23:29:40.678Z,88.80
2019-05-10T23:32:08.019Z,89.10
2019-05-10T23:34:35.573Z,89.00
2019-05-10T23:37:02.789Z,88.80
2019-05-10T23:39:40.183Z,88.70
2019-05-10T23:41:59.182Z,88.90
2019-05-10T23:44:27.034Z,89.20
2019-05-10T23:46:54.320Z,89.50
2019-05-10T23:49:21.738Z,89.80
2019-05-10T23:51:48.739Z,89.90
2019-05-10T23:54:15.952Z,90.20
2019-05-10T23:56:43.024Z,90.40
2019-05-10T23:59:10.813Z,90.40
